Metar z pełnej godziny Komunikat METAR ze strony awiacja.imgw.pl Metar G00 EPSC METAR EPSC 070000Z 26007KT 9999 SCT004 BKN007 02/01 Q1011 =